sensor_id;sensor_type;location;lat;lon;timestamp;P1;durP1;ratioP1;P2;durP2;ratioP2
66264;SDS011;53055;44.648;21.148;2022-12-15T00:02:09;20.77;;;15.35;;
66264;SDS011;53055;44.648;21.148;2022-12-15T00:04:54;17.33;;;13.25;;
66264;SDS011;53055;44.648;21.148;2022-12-15T00:07:38;20.17;;;15.48;;
66264;SDS011;53055;44.648;21.148;2022-12-15T00:10:23;18.48;;;14.38;;
66264;SDS011;53055;44.648;21.148;2022-12-15T00:13:11;16.70;;;13.15;;
66264;SDS011;53055;44.648;21.148;2022-12-15T00:15:56;19.42;;;15.02;;
66264;SDS011;53055;44.648;21.148;2022-12-15T00:18:41;20.52;;;15.18;;
66264;SDS011;53055;44.648;21.148;2022-12-15T00:21:25;17.48;;;13.75;;
66264;SDS011;53055;44.648;21.148;2022-12-15T00:24:10;19.17;;;14.40;;
66264;SDS011;53055;44.648;21.148;2022-12-15T00:26:54;20.00;;;15.55;;
66264;SDS011;53055;44.648;21.148;2022-12-15T00:29:39;15.95;;;11.77;;
66264;SDS011;53055;44.648;21.148;2022-12-15T00:32:23;20.95;;;14.38;;
66264;SDS011;53055;44.648;21.148;2022-12-15T00:35:08;16.15;;;12.15;;
66264;SDS011;53055;44.648;21.148;2022-12-15T00:37:52;18.23;;;12.75;;
66264;SDS011;53055;44.648;21.148;2022-12-15T00:40:37;17.65;;;14.10;;
66264;SDS011;53055;44.648;21.148;2022-12-15T00:43:03;29.35;;;21.58;;
66264;SDS011;53055;44.648;21.148;2022-12-15T00:45:29;19.50;;;14.80;;
66264;SDS011;53055;44.648;21.148;2022-12-15T00:48:14;14.55;;;10.57;;
66264;SDS011;53055;44.648;21.148;2022-12-15T00:50:43;15.95;;;12.32;;
66264;SDS011;53055;44.648;21.148;2022-12-15T00:53:19;17.73;;;14.48;;
66264;SDS011;53055;44.648;21.148;2022-12-15T00:56:03;17.85;;;13.95;;
66264;SDS011;53055;44.648;21.148;2022-12-15T00:58:48;15.63;;;12.07;;
66264;SDS011;53055;44.648;21.148;2022-12-15T01:01:33;17.48;;;12.63;;
66264;SDS011;53055;44.648;21.148;2022-12-15T01:04:17;17.45;;;13.75;;
66264;SDS011;53055;44.648;21.148;2022-12-15T01:07:02;17.77;;;13.57;;
66264;SDS011;53055;44.648;21.148;2022-12-15T01:09:46;16.88;;;13.00;;
66264;SDS011;53055;44.648;21.148;2022-12-15T01:12:31;16.30;;;11.90;;
66264;SDS011;53055;44.648;21.148;2022-12-15T01:15:15;15.45;;;12.77;;
66264;SDS011;53055;44.648;21.148;2022-12-15T01:18:00;16.70;;;11.93;;
66264;SDS011;53055;44.648;21.148;2022-12-15T01:20:44;14.70;;;11.57;;
66264;SDS011;53055;44.648;21.148;2022-12-15T01:23:18;17.00;;;12.98;;
66264;SDS011;53055;44.648;21.148;2022-12-15T01:25:44;15.35;;;11.50;;
66264;SDS011;53055;44.648;21.148;2022-12-15T01:28:11;14.45;;;11.20;;
66264;SDS011;53055;44.648;21.148;2022-12-15T01:30:37;15.30;;;11.20;;
66264;SDS011;53055;44.648;21.148;2022-12-15T01:33:03;15.80;;;12.20;;
66264;SDS011;53055;44.648;21.148;2022-12-15T01:35:29;15.73;;;11.60;;
66264;SDS011;53055;44.648;21.148;2022-12-15T01:37:56;14.80;;;11.05;;
66264;SDS011;53055;44.648;21.148;2022-12-15T01:40:22;14.77;;;11.27;;
66264;SDS011;53055;44.648;21.148;2022-12-15T01:43:14;13.65;;;10.50;;
66264;SDS011;53055;44.648;21.148;2022-12-15T01:45:48;13.02;;;10.52;;
66264;SDS011;53055;44.648;21.148;2022-12-15T01:48:19;14.02;;;10.98;;
66264;SDS011;53055;44.648;21.148;2022-12-15T01:51:03;14.82;;;10.52;;
66264;SDS011;53055;44.648;21.148;2022-12-15T01:53:31;14.70;;;10.98;;
66264;SDS011;53055;44.648;21.148;2022-12-15T01:55:58;14.77;;;10.65;;
66264;SDS011;53055;44.648;21.148;2022-12-15T01:58:24;13.50;;;10.07;;
66264;SDS011;53055;44.648;21.148;2022-12-15T02:00:51;14.07;;;11.00;;
66264;SDS011;53055;44.648;21.148;2022-12-15T02:03:17;14.80;;;10.07;;
66264;SDS011;53055;44.648;21.148;2022-12-15T02:05:43;14.27;;;11.13;;
66264;SDS011;53055;44.648;21.148;2022-12-15T02:08:10;13.35;;;10.02;;
66264;SDS011;53055;44.648;21.148;2022-12-15T02:13:09;13.48;;;9.98;;
66264;SDS011;53055;44.648;21.148;2022-12-15T02:15:42;14.10;;;10.73;;
66264;SDS011;53055;44.648;21.148;2022-12-15T02:18:14;12.00;;;8.82;;
66264;SDS011;53055;44.648;21.148;2022-12-15T02:33:09;10.90;;;7.60;;
66264;SDS011;53055;44.648;21.148;2022-12-15T02:38:11;10.65;;;8.45;;
66264;SDS011;53055;44.648;21.148;2022-12-15T02:40:38;10.45;;;8.68;;
66264;SDS011;53055;44.648;21.148;2022-12-15T02:43:04;11.55;;;9.55;;
66264;SDS011;53055;44.648;21.148;2022-12-15T02:45:37;11.90;;;7.35;;
66264;SDS011;53055;44.648;21.148;2022-12-15T02:50:59;10.95;;;7.78;;
66264;SDS011;53055;44.648;21.148;2022-12-15T03:01:24;8.95;;;6.38;;
66264;SDS011;53055;44.648;21.148;2022-12-15T03:03:52;9.43;;;6.57;;
66264;SDS011;53055;44.648;21.148;2022-12-15T03:06:20;9.40;;;6.20;;
66264;SDS011;53055;44.648;21.148;2022-12-15T03:08:46;9.70;;;6.35;;
66264;SDS011;53055;44.648;21.148;2022-12-15T03:11:12;11.15;;;7.38;;
66264;SDS011;53055;44.648;21.148;2022-12-15T03:13:38;10.35;;;6.43;;
66264;SDS011;53055;44.648;21.148;2022-12-15T03:16:04;10.48;;;6.55;;
66264;SDS011;53055;44.648;21.148;2022-12-15T03:18:30;13.10;;;8.85;;
66264;SDS011;53055;44.648;21.148;2022-12-15T03:20:56;16.35;;;11.13;;
66264;SDS011;53055;44.648;21.148;2022-12-15T03:23:22;12.82;;;8.48;;
66264;SDS011;53055;44.648;21.148;2022-12-15T03:25:48;9.35;;;5.60;;
66264;SDS011;53055;44.648;21.148;2022-12-15T03:28:14;12.23;;;9.20;;
66264;SDS011;53055;44.648;21.148;2022-12-15T03:30:40;10.48;;;6.63;;
66264;SDS011;53055;44.648;21.148;2022-12-15T03:33:06;9.40;;;6.30;;
66264;SDS011;53055;44.648;21.148;2022-12-15T03:35:32;12.13;;;8.25;;
66264;SDS011;53055;44.648;21.148;2022-12-15T03:37:58;12.38;;;8.30;;
66264;SDS011;53055;44.648;21.148;2022-12-15T03:40:24;10.25;;;7.10;;
66264;SDS011;53055;44.648;21.148;2022-12-15T03:42:50;9.50;;;6.85;;
66264;SDS011;53055;44.648;21.148;2022-12-15T03:45:20;9.52;;;6.85;;
66264;SDS011;53055;44.648;21.148;2022-12-15T03:47:47;9.55;;;7.28;;
66264;SDS011;53055;44.648;21.148;2022-12-15T03:50:14;9.73;;;7.07;;
66264;SDS011;53055;44.648;21.148;2022-12-15T03:52:41;9.95;;;7.35;;
66264;SDS011;53055;44.648;21.148;2022-12-15T03:55:07;9.73;;;7.10;;
66264;SDS011;53055;44.648;21.148;2022-12-15T03:57:34;9.70;;;7.20;;
66264;SDS011;53055;44.648;21.148;2022-12-15T04:00:00;9.20;;;6.88;;
66264;SDS011;53055;44.648;21.148;2022-12-15T04:02:26;10.95;;;7.53;;
66264;SDS011;53055;44.648;21.148;2022-12-15T04:04:52;9.90;;;6.93;;
66264;SDS011;53055;44.648;21.148;2022-12-15T04:07:18;10.38;;;7.68;;
66264;SDS011;53055;44.648;21.148;2022-12-15T04:09:44;12.48;;;8.13;;
66264;SDS011;53055;44.648;21.148;2022-12-15T04:12:10;10.70;;;8.45;;
66264;SDS011;53055;44.648;21.148;2022-12-15T04:14:36;11.38;;;8.32;;
66264;SDS011;53055;44.648;21.148;2022-12-15T04:17:09;13.70;;;9.50;;
66264;SDS011;53055;44.648;21.148;2022-12-15T04:19:35;14.00;;;10.40;;
66264;SDS011;53055;44.648;21.148;2022-12-15T04:22:20;16.00;;;11.90;;
66264;SDS011;53055;44.648;21.148;2022-12-15T04:24:46;14.80;;;11.07;;
66264;SDS011;53055;44.648;21.148;2022-12-15T04:27:31;14.88;;;10.88;;
66264;SDS011;53055;44.648;21.148;2022-12-15T04:30:15;12.73;;;9.73;;
66264;SDS011;53055;44.648;21.148;2022-12-15T04:33:00;11.05;;;8.32;;
66264;SDS011;53055;44.648;21.148;2022-12-15T04:35:45;11.93;;;8.30;;
66264;SDS011;53055;44.648;21.148;2022-12-15T04:38:29;11.93;;;8.23;;
66264;SDS011;53055;44.648;21.148;2022-12-15T04:41:14;10.43;;;7.22;;
66264;SDS011;53055;44.648;21.148;2022-12-15T04:44:00;10.68;;;7.40;;
66264;SDS011;53055;44.648;21.148;2022-12-15T04:46:45;11.77;;;8.02;;
66264;SDS011;53055;44.648;21.148;2022-12-15T04:49:29;13.45;;;10.00;;
66264;SDS011;53055;44.648;21.148;2022-12-15T04:52:14;11.57;;;7.88;;
66264;SDS011;53055;44.648;21.148;2022-12-15T04:54:58;13.95;;;9.45;;
66264;SDS011;53055;44.648;21.148;2022-12-15T04:57:43;13.52;;;8.93;;
66264;SDS011;53055;44.648;21.148;2022-12-15T05:00:27;12.95;;;9.93;;
66264;SDS011;53055;44.648;21.148;2022-12-15T05:03:12;16.90;;;12.32;;
66264;SDS011;53055;44.648;21.148;2022-12-15T05:05:57;16.85;;;12.43;;
66264;SDS011;53055;44.648;21.148;2022-12-15T05:08:41;18.92;;;13.70;;
66264;SDS011;53055;44.648;21.148;2022-12-15T05:11:26;19.92;;;15.80;;
66264;SDS011;53055;44.648;21.148;2022-12-15T05:14:10;21.75;;;16.85;;
66264;SDS011;53055;44.648;21.148;2022-12-15T05:16:55;21.85;;;17.92;;
66264;SDS011;53055;44.648;21.148;2022-12-15T05:19:39;20.77;;;15.88;;
66264;SDS011;53055;44.648;21.148;2022-12-15T05:22:24;18.42;;;13.85;;
66264;SDS011;53055;44.648;21.148;2022-12-15T05:25:09;19.40;;;14.50;;
66264;SDS011;53055;44.648;21.148;2022-12-15T05:27:53;19.25;;;14.63;;
66264;SDS011;53055;44.648;21.148;2022-12-15T05:30:38;19.48;;;14.88;;
66264;SDS011;53055;44.648;21.148;2022-12-15T05:33:22;24.02;;;17.35;;
66264;SDS011;53055;44.648;21.148;2022-12-15T05:35:48;28.90;;;21.75;;
66264;SDS011;53055;44.648;21.148;2022-12-15T05:38:15;34.50;;;24.55;;
66264;SDS011;53055;44.648;21.148;2022-12-15T05:40:42;33.88;;;23.48;;
66264;SDS011;53055;44.648;21.148;2022-12-15T05:43:08;30.13;;;21.98;;
66264;SDS011;53055;44.648;21.148;2022-12-15T05:45:34;30.40;;;22.23;;
66264;SDS011;53055;44.648;21.148;2022-12-15T05:48:01;38.17;;;27.98;;
66264;SDS011;53055;44.648;21.148;2022-12-15T05:50:27;52.90;;;40.88;;
66264;SDS011;53055;44.648;21.148;2022-12-15T05:52:53;46.25;;;34.28;;
66264;SDS011;53055;44.648;21.148;2022-12-15T05:55:19;44.53;;;32.58;;
66264;SDS011;53055;44.648;21.148;2022-12-15T05:57:52;44.05;;;33.10;;
66264;SDS011;53055;44.648;21.148;2022-12-15T06:00:19;42.58;;;30.70;;
66264;SDS011;53055;44.648;21.148;2022-12-15T06:02:45;38.95;;;28.35;;
66264;SDS011;53055;44.648;21.148;2022-12-15T06:05:11;43.00;;;31.25;;
66264;SDS011;53055;44.648;21.148;2022-12-15T06:07:38;47.13;;;35.67;;
66264;SDS011;53055;44.648;21.148;2022-12-15T06:10:04;46.92;;;35.78;;
66264;SDS011;53055;44.648;21.148;2022-12-15T06:12:30;50.40;;;39.50;;
66264;SDS011;53055;44.648;21.148;2022-12-15T06:14:56;50.60;;;37.50;;
66264;SDS011;53055;44.648;21.148;2022-12-15T06:17:22;49.50;;;34.33;;
66264;SDS011;53055;44.648;21.148;2022-12-15T06:19:48;45.15;;;33.72;;
66264;SDS011;53055;44.648;21.148;2022-12-15T06:22:14;52.97;;;36.83;;
66264;SDS011;53055;44.648;21.148;2022-12-15T06:24:41;45.22;;;33.75;;
66264;SDS011;53055;44.648;21.148;2022-12-15T06:27:07;45.20;;;34.13;;
66264;SDS011;53055;44.648;21.148;2022-12-15T06:29:33;42.25;;;30.73;;
66264;SDS011;53055;44.648;21.148;2022-12-15T06:31:59;54.53;;;38.65;;
66264;SDS011;53055;44.648;21.148;2022-12-15T06:34:25;58.00;;;41.20;;
66264;SDS011;53055;44.648;21.148;2022-12-15T06:36:51;42.08;;;30.42;;
66264;SDS011;53055;44.648;21.148;2022-12-15T06:39:17;35.63;;;25.77;;
66264;SDS011;53055;44.648;21.148;2022-12-15T06:41:43;39.35;;;28.35;;
66264;SDS011;53055;44.648;21.148;2022-12-15T06:44:15;42.10;;;31.63;;
66264;SDS011;53055;44.648;21.148;2022-12-15T06:46:41;39.55;;;30.30;;
66264;SDS011;53055;44.648;21.148;2022-12-15T06:49:07;37.20;;;26.55;;
66264;SDS011;53055;44.648;21.148;2022-12-15T06:51:33;38.28;;;26.13;;
66264;SDS011;53055;44.648;21.148;2022-12-15T06:54:00;34.15;;;23.42;;
66264;SDS011;53055;44.648;21.148;2022-12-15T06:56:27;32.72;;;23.77;;
66264;SDS011;53055;44.648;21.148;2022-12-15T06:58:53;57.10;;;36.13;;
66264;SDS011;53055;44.648;21.148;2022-12-15T07:01:20;45.03;;;28.17;;
66264;SDS011;53055;44.648;21.148;2022-12-15T07:03:47;42.88;;;28.40;;
66264;SDS011;53055;44.648;21.148;2022-12-15T07:06:13;29.83;;;20.50;;
66264;SDS011;53055;44.648;21.148;2022-12-15T07:08:40;17.80;;;13.05;;
66264;SDS011;53055;44.648;21.148;2022-12-15T07:11:06;14.55;;;11.23;;
66264;SDS011;53055;44.648;21.148;2022-12-15T07:13:33;11.35;;;8.40;;
66264;SDS011;53055;44.648;21.148;2022-12-15T07:16:02;15.90;;;10.95;;
66264;SDS011;53055;44.648;21.148;2022-12-15T07:18:29;18.30;;;13.10;;
66264;SDS011;53055;44.648;21.148;2022-12-15T07:20:56;17.45;;;13.18;;
66264;SDS011;53055;44.648;21.148;2022-12-15T07:23:22;17.42;;;14.13;;
66264;SDS011;53055;44.648;21.148;2022-12-15T07:25:48;29.98;;;23.55;;
66264;SDS011;53055;44.648;21.148;2022-12-15T07:28:14;33.95;;;25.30;;
66264;SDS011;53055;44.648;21.148;2022-12-15T07:30:40;25.45;;;17.02;;
66264;SDS011;53055;44.648;21.148;2022-12-15T07:33:06;26.13;;;17.50;;
66264;SDS011;53055;44.648;21.148;2022-12-15T07:35:32;29.30;;;21.00;;
66264;SDS011;53055;44.648;21.148;2022-12-15T07:37:58;16.25;;;11.45;;
66264;SDS011;53055;44.648;21.148;2022-12-15T07:40:24;23.88;;;15.93;;
66264;SDS011;53055;44.648;21.148;2022-12-15T07:42:50;25.20;;;16.63;;
66264;SDS011;53055;44.648;21.148;2022-12-15T07:45:17;20.48;;;14.43;;
66264;SDS011;53055;44.648;21.148;2022-12-15T07:47:43;14.35;;;11.07;;
66264;SDS011;53055;44.648;21.148;2022-12-15T07:50:09;16.98;;;13.55;;
66264;SDS011;53055;44.648;21.148;2022-12-15T07:52:35;25.60;;;20.90;;
66264;SDS011;53055;44.648;21.148;2022-12-15T07:55:01;29.00;;;24.98;;
66264;SDS011;53055;44.648;21.148;2022-12-15T07:57:27;30.25;;;22.63;;
66264;SDS011;53055;44.648;21.148;2022-12-15T07:59:53;20.58;;;15.85;;
66264;SDS011;53055;44.648;21.148;2022-12-15T08:02:19;22.23;;;14.90;;
66264;SDS011;53055;44.648;21.148;2022-12-15T08:04:45;27.23;;;20.65;;
66264;SDS011;53055;44.648;21.148;2022-12-15T08:07:11;26.42;;;21.05;;
66264;SDS011;53055;44.648;21.148;2022-12-15T08:09:37;36.00;;;28.15;;
66264;SDS011;53055;44.648;21.148;2022-12-15T08:12:03;35.17;;;26.60;;
66264;SDS011;53055;44.648;21.148;2022-12-15T08:14:29;38.70;;;30.30;;
66264;SDS011;53055;44.648;21.148;2022-12-15T08:16:56;39.25;;;30.15;;
66264;SDS011;53055;44.648;21.148;2022-12-15T08:19:22;30.77;;;23.98;;
66264;SDS011;53055;44.648;21.148;2022-12-15T08:21:48;38.38;;;31.40;;
66264;SDS011;53055;44.648;21.148;2022-12-15T08:24:14;29.30;;;22.38;;
66264;SDS011;53055;44.648;21.148;2022-12-15T08:26:41;29.77;;;23.48;;
66264;SDS011;53055;44.648;21.148;2022-12-15T08:29:09;27.25;;;22.15;;
66264;SDS011;53055;44.648;21.148;2022-12-15T08:31:36;26.77;;;22.33;;
66264;SDS011;53055;44.648;21.148;2022-12-15T08:34:02;24.50;;;20.30;;
66264;SDS011;53055;44.648;21.148;2022-12-15T08:36:29;26.20;;;21.48;;
66264;SDS011;53055;44.648;21.148;2022-12-15T08:38:56;29.00;;;24.40;;
66264;SDS011;53055;44.648;21.148;2022-12-15T08:41:23;27.90;;;21.48;;
66264;SDS011;53055;44.648;21.148;2022-12-15T08:43:50;29.10;;;23.55;;
66264;SDS011;53055;44.648;21.148;2022-12-15T08:46:17;31.63;;;24.35;;
66264;SDS011;53055;44.648;21.148;2022-12-15T08:48:44;28.58;;;22.67;;
66264;SDS011;53055;44.648;21.148;2022-12-15T08:51:10;34.58;;;25.70;;
66264;SDS011;53055;44.648;21.148;2022-12-15T08:53:36;33.13;;;26.95;;
66264;SDS011;53055;44.648;21.148;2022-12-15T08:56:03;22.88;;;18.70;;
66264;SDS011;53055;44.648;21.148;2022-12-15T08:58:30;30.80;;;21.40;;
66264;SDS011;53055;44.648;21.148;2022-12-15T09:01:03;38.95;;;24.90;;
66264;SDS011;53055;44.648;21.148;2022-12-15T09:03:29;25.15;;;17.58;;
66264;SDS011;53055;44.648;21.148;2022-12-15T09:05:55;26.85;;;18.98;;
66264;SDS011;53055;44.648;21.148;2022-12-15T09:08:21;23.98;;;17.90;;
66264;SDS011;53055;44.648;21.148;2022-12-15T09:10:47;17.45;;;13.77;;
66264;SDS011;53055;44.648;21.148;2022-12-15T09:13:13;19.83;;;13.07;;
66264;SDS011;53055;44.648;21.148;2022-12-15T09:15:39;29.13;;;20.50;;
66264;SDS011;53055;44.648;21.148;2022-12-15T09:18:07;19.55;;;13.48;;
66264;SDS011;53055;44.648;21.148;2022-12-15T09:20:33;15.68;;;11.20;;
66264;SDS011;53055;44.648;21.148;2022-12-15T09:22:59;15.88;;;11.43;;
66264;SDS011;53055;44.648;21.148;2022-12-15T09:25:25;13.68;;;9.85;;
66264;SDS011;53055;44.648;21.148;2022-12-15T09:27:51;20.52;;;13.77;;
66264;SDS011;53055;44.648;21.148;2022-12-15T09:30:17;17.85;;;11.50;;
66264;SDS011;53055;44.648;21.148;2022-12-15T09:32:43;21.08;;;14.18;;
66264;SDS011;53055;44.648;21.148;2022-12-15T09:35:09;10.95;;;7.70;;
66264;SDS011;53055;44.648;21.148;2022-12-15T09:37:35;11.90;;;8.30;;
66264;SDS011;53055;44.648;21.148;2022-12-15T09:40:01;11.23;;;8.20;;
66264;SDS011;53055;44.648;21.148;2022-12-15T09:42:30;9.68;;;6.30;;
66264;SDS011;53055;44.648;21.148;2022-12-15T09:44:58;8.80;;;6.15;;
66264;SDS011;53055;44.648;21.148;2022-12-15T09:47:32;8.43;;;5.97;;
66264;SDS011;53055;44.648;21.148;2022-12-15T09:50:00;10.75;;;7.43;;
66264;SDS011;53055;44.648;21.148;2022-12-15T09:52:31;8.15;;;5.50;;
66264;SDS011;53055;44.648;21.148;2022-12-15T09:54:58;17.83;;;11.88;;
66264;SDS011;53055;44.648;21.148;2022-12-15T09:59:57;13.07;;;8.88;;
66264;SDS011;53055;44.648;21.148;2022-12-15T10:02:49;11.27;;;6.90;;
66264;SDS011;53055;44.648;21.148;2022-12-15T10:05:27;11.57;;;7.10;;
66264;SDS011;53055;44.648;21.148;2022-12-15T10:07:55;14.55;;;10.32;;
66264;SDS011;53055;44.648;21.148;2022-12-15T10:12:53;17.92;;;12.50;;
66264;SDS011;53055;44.648;21.148;2022-12-15T10:15:22;14.23;;;10.05;;
66264;SDS011;53055;44.648;21.148;2022-12-15T10:17:58;14.75;;;9.10;;
66264;SDS011;53055;44.648;21.148;2022-12-15T10:20:26;14.13;;;9.68;;
66264;SDS011;53055;44.648;21.148;2022-12-15T10:22:54;14.43;;;10.18;;
66264;SDS011;53055;44.648;21.148;2022-12-15T10:30:33;14.98;;;10.48;;
66264;SDS011;53055;44.648;21.148;2022-12-15T10:35:29;13.02;;;9.05;;
66264;SDS011;53055;44.648;21.148;2022-12-15T10:38:08;15.68;;;11.38;;
66264;SDS011;53055;44.648;21.148;2022-12-15T10:41:01;13.82;;;9.75;;
66264;SDS011;53055;44.648;21.148;2022-12-15T10:48:30;18.88;;;16.88;;
66264;SDS011;53055;44.648;21.148;2022-12-15T10:53:45;15.73;;;11.02;;
66264;SDS011;53055;44.648;21.148;2022-12-15T10:58:46;15.88;;;11.48;;
66264;SDS011;53055;44.648;21.148;2022-12-15T11:01:14;15.05;;;10.98;;
66264;SDS011;53055;44.648;21.148;2022-12-15T11:03:40;16.65;;;11.60;;
66264;SDS011;53055;44.648;21.148;2022-12-15T11:06:20;11.65;;;8.60;;
66264;SDS011;53055;44.648;21.148;2022-12-15T11:08:47;16.08;;;11.07;;
66264;SDS011;53055;44.648;21.148;2022-12-15T11:17:00;16.20;;;11.95;;
66264;SDS011;53055;44.648;21.148;2022-12-15T11:21:56;11.80;;;7.55;;
66264;SDS011;53055;44.648;21.148;2022-12-15T11:32:20;12.60;;;8.60;;
66264;SDS011;53055;44.648;21.148;2022-12-15T11:34:47;16.08;;;11.43;;
66264;SDS011;53055;44.648;21.148;2022-12-15T11:42:29;11.60;;;7.68;;
66264;SDS011;53055;44.648;21.148;2022-12-15T11:50:38;15.75;;;11.38;;
66264;SDS011;53055;44.648;21.148;2022-12-15T12:01:01;32.33;;;28.33;;
66264;SDS011;53055;44.648;21.148;2022-12-15T12:06:39;11.45;;;9.40;;
66264;SDS011;53055;44.648;21.148;2022-12-15T12:09:02;13.57;;;10.18;;
66264;SDS011;53055;44.648;21.148;2022-12-15T12:11:40;11.18;;;8.10;;
66264;SDS011;53055;44.648;21.148;2022-12-15T12:14:29;11.80;;;9.38;;
66264;SDS011;53055;44.648;21.148;2022-12-15T12:17:07;13.43;;;9.77;;
66264;SDS011;53055;44.648;21.148;2022-12-15T12:19:40;13.18;;;10.57;;
66264;SDS011;53055;44.648;21.148;2022-12-15T12:25:16;16.77;;;11.55;;
66264;SDS011;53055;44.648;21.148;2022-12-15T12:27:53;16.25;;;13.05;;
66264;SDS011;53055;44.648;21.148;2022-12-15T12:30:21;14.02;;;9.45;;
66264;SDS011;53055;44.648;21.148;2022-12-15T12:35:32;13.25;;;10.75;;
66264;SDS011;53055;44.648;21.148;2022-12-15T12:38:03;12.52;;;9.52;;
66264;SDS011;53055;44.648;21.148;2022-12-15T12:43:08;15.82;;;12.82;;
66264;SDS011;53055;44.648;21.148;2022-12-15T12:45:43;11.63;;;9.40;;
66264;SDS011;53055;44.648;21.148;2022-12-15T12:53:58;28.80;;;25.65;;
66264;SDS011;53055;44.648;21.148;2022-12-15T12:58:57;12.25;;;9.48;;
66264;SDS011;53055;44.648;21.148;2022-12-15T13:01:28;10.13;;;7.75;;
66264;SDS011;53055;44.648;21.148;2022-12-15T13:04:04;8.77;;;7.20;;
66264;SDS011;53055;44.648;21.148;2022-12-15T13:14:13;13.07;;;8.23;;
66264;SDS011;53055;44.648;21.148;2022-12-15T13:16:40;11.98;;;9.82;;
66264;SDS011;53055;44.648;21.148;2022-12-15T13:19:07;13.40;;;11.57;;
66264;SDS011;53055;44.648;21.148;2022-12-15T13:24:44;14.93;;;11.02;;
66264;SDS011;53055;44.648;21.148;2022-12-15T13:29:30;16.67;;;12.45;;
66264;SDS011;53055;44.648;21.148;2022-12-15T13:31:58;17.23;;;13.27;;
66264;SDS011;53055;44.648;21.148;2022-12-15T13:34:25;16.80;;;14.13;;
66264;SDS011;53055;44.648;21.148;2022-12-15T13:36:53;24.30;;;19.85;;
66264;SDS011;53055;44.648;21.148;2022-12-15T13:44:28;18.83;;;14.63;;
66264;SDS011;53055;44.648;21.148;2022-12-15T13:46:55;23.05;;;19.67;;
66264;SDS011;53055;44.648;21.148;2022-12-15T13:49:25;34.47;;;28.40;;
66264;SDS011;53055;44.648;21.148;2022-12-15T13:51:52;37.28;;;28.42;;
66264;SDS011;53055;44.648;21.148;2022-12-15T13:54:23;41.03;;;30.38;;
66264;SDS011;53055;44.648;21.148;2022-12-15T13:56:56;29.77;;;23.17;;
66264;SDS011;53055;44.648;21.148;2022-12-15T13:59:28;27.20;;;21.55;;
66264;SDS011;53055;44.648;21.148;2022-12-15T14:01:55;28.23;;;23.40;;
66264;SDS011;53055;44.648;21.148;2022-12-15T14:04:21;32.17;;;28.48;;
66264;SDS011;53055;44.648;21.148;2022-12-15T14:06:51;33.85;;;30.08;;
66264;SDS011;53055;44.648;21.148;2022-12-15T14:09:19;30.65;;;24.95;;
66264;SDS011;53055;44.648;21.148;2022-12-15T14:11:45;34.47;;;29.80;;
66264;SDS011;53055;44.648;21.148;2022-12-15T14:14:19;46.95;;;39.28;;
66264;SDS011;53055;44.648;21.148;2022-12-15T14:16:49;40.97;;;32.35;;
66264;SDS011;53055;44.648;21.148;2022-12-15T14:19:16;41.30;;;36.30;;
66264;SDS011;53055;44.648;21.148;2022-12-15T14:21:56;44.40;;;37.88;;
66264;SDS011;53055;44.648;21.148;2022-12-15T14:26:49;45.25;;;37.83;;
66264;SDS011;53055;44.648;21.148;2022-12-15T14:29:15;41.55;;;33.67;;
66264;SDS011;53055;44.648;21.148;2022-12-15T14:31:43;40.72;;;30.73;;
66264;SDS011;53055;44.648;21.148;2022-12-15T14:34:14;56.53;;;47.40;;
66264;SDS011;53055;44.648;21.148;2022-12-15T14:36:41;70.78;;;56.92;;
66264;SDS011;53055;44.648;21.148;2022-12-15T14:39:13;76.22;;;59.90;;
66264;SDS011;53055;44.648;21.148;2022-12-15T14:41:45;61.53;;;49.83;;
66264;SDS011;53055;44.648;21.148;2022-12-15T14:44:17;46.25;;;38.00;;
66264;SDS011;53055;44.648;21.148;2022-12-15T14:46:44;44.88;;;36.63;;
66264;SDS011;53055;44.648;21.148;2022-12-15T14:49:12;42.72;;;36.13;;
66264;SDS011;53055;44.648;21.148;2022-12-15T14:51:43;49.03;;;41.00;;
66264;SDS011;53055;44.648;21.148;2022-12-15T14:54:31;43.28;;;35.05;;
66264;SDS011;53055;44.648;21.148;2022-12-15T14:57:01;48.92;;;41.28;;
66264;SDS011;53055;44.648;21.148;2022-12-15T14:59:29;45.03;;;37.63;;
66264;SDS011;53055;44.648;21.148;2022-12-15T15:01:58;56.70;;;50.90;;
66264;SDS011;53055;44.648;21.148;2022-12-15T15:04:30;46.55;;;41.47;;
66264;SDS011;53055;44.648;21.148;2022-12-15T15:06:58;42.83;;;35.25;;
66264;SDS011;53055;44.648;21.148;2022-12-15T15:09:26;49.72;;;41.20;;
66264;SDS011;53055;44.648;21.148;2022-12-15T15:11:55;50.35;;;40.88;;
66264;SDS011;53055;44.648;21.148;2022-12-15T15:14:25;44.47;;;36.03;;
66264;SDS011;53055;44.648;21.148;2022-12-15T15:16:57;58.90;;;49.58;;
66264;SDS011;53055;44.648;21.148;2022-12-15T15:19:24;57.28;;;44.47;;
66264;SDS011;53055;44.648;21.148;2022-12-15T15:21:50;89.03;;;66.65;;
66264;SDS011;53055;44.648;21.148;2022-12-15T15:26:42;61.13;;;48.88;;
66264;SDS011;53055;44.648;21.148;2022-12-15T15:32:03;74.78;;;53.72;;
66264;SDS011;53055;44.648;21.148;2022-12-15T15:34:29;49.80;;;37.63;;
66264;SDS011;53055;44.648;21.148;2022-12-15T15:36:55;49.65;;;37.47;;
66264;SDS011;53055;44.648;21.148;2022-12-15T15:39:21;68.78;;;48.03;;
66264;SDS011;53055;44.648;21.148;2022-12-15T15:41:47;57.67;;;43.22;;
66264;SDS011;53055;44.648;21.148;2022-12-15T15:44:14;34.17;;;26.85;;
66264;SDS011;53055;44.648;21.148;2022-12-15T15:46:44;27.58;;;21.63;;
66264;SDS011;53055;44.648;21.148;2022-12-15T15:49:12;31.20;;;24.27;;
66264;SDS011;53055;44.648;21.148;2022-12-15T15:51:40;41.42;;;31.13;;
66264;SDS011;53055;44.648;21.148;2022-12-15T15:54:07;41.47;;;29.70;;
66264;SDS011;53055;44.648;21.148;2022-12-15T15:56:35;56.08;;;38.65;;
66264;SDS011;53055;44.648;21.148;2022-12-15T15:59:04;57.58;;;40.83;;
66264;SDS011;53055;44.648;21.148;2022-12-15T16:01:34;67.68;;;46.08;;
66264;SDS011;53055;44.648;21.148;2022-12-15T16:04:00;71.05;;;48.92;;
66264;SDS011;53055;44.648;21.148;2022-12-15T16:06:26;60.95;;;46.85;;
66264;SDS011;53055;44.648;21.148;2022-12-15T16:08:53;39.42;;;31.50;;
66264;SDS011;53055;44.648;21.148;2022-12-15T16:11:20;28.23;;;23.23;;
66264;SDS011;53055;44.648;21.148;2022-12-15T16:13:47;32.50;;;26.60;;
66264;SDS011;53055;44.648;21.148;2022-12-15T16:16:15;36.42;;;29.35;;
66264;SDS011;53055;44.648;21.148;2022-12-15T16:18:42;39.28;;;33.67;;
66264;SDS011;53055;44.648;21.148;2022-12-15T16:21:09;41.22;;;34.40;;
66264;SDS011;53055;44.648;21.148;2022-12-15T16:23:38;43.67;;;34.70;;
66264;SDS011;53055;44.648;21.148;2022-12-15T16:26:04;41.00;;;32.97;;
66264;SDS011;53055;44.648;21.148;2022-12-15T16:28:30;44.50;;;36.03;;
66264;SDS011;53055;44.648;21.148;2022-12-15T16:30:57;48.47;;;42.25;;
66264;SDS011;53055;44.648;21.148;2022-12-15T16:33:23;37.17;;;29.30;;
66264;SDS011;53055;44.648;21.148;2022-12-15T16:35:49;32.15;;;25.67;;
66264;SDS011;53055;44.648;21.148;2022-12-15T16:38:20;43.72;;;30.95;;
66264;SDS011;53055;44.648;21.148;2022-12-15T16:40:47;63.42;;;42.60;;
66264;SDS011;53055;44.648;21.148;2022-12-15T16:43:14;52.78;;;39.05;;
66264;SDS011;53055;44.648;21.148;2022-12-15T16:45:41;56.35;;;43.35;;